This is the latest recevied weather packets stored in our database for station/object K9RCP-24. If no packets are shown the sender has not sent any weather packets the latest 10 day(s).
| Time | Temp. | Humidity | Pressure | Rain* | Wind** | Luminosity | Snow |
|---|---|---|---|---|---|---|---|
| 1777898727 | -17.78° C | 100% | 1014.6 hPa | 0 mm | - | - | - |
| 1777898603 | -17.78° C | 100% | 1014.6 hPa | 0 mm | - | - | - |
| 1777898049 | -17.78° C | 100% | 1014.2 hPa | 0 mm | - | - | - |
| 1777897785 | -17.78° C | 100% | 1014.2 hPa | 0 mm | - | - | - |
| 1777897559 | -17.78° C | 100% | 1014.6 hPa | 0 mm | - | - | - |
| 1777897019 | -17.78° C | 100% | 1014.6 hPa | 0 mm | - | - | - |
| 1777895172 | 11.67° C | 82% | 1014.2 hPa | 0 mm | - | - | - |
| 1777894650 | 11.67° C | 82% | 1013.9 hPa | 0 mm | - | - | - |
| 1777893994 | 11.67° C | 82% | 1013.9 hPa | 0 mm | - | - | - |
| 1777892987 | -17.78° C | 100% | 1013.9 hPa | 0 mm | - | - | - |
| 1777892709 | -17.78° C | 100% | 1013.5 hPa | 0 mm | - | - | - |
| 1777890224 | 13.33° C | 77% | 1013.2 hPa | 0 mm | - | - | - |
| 1777889322 | -17.78° C | 100% | 1012.9 hPa | 0 mm | - | - | - |
| 1777889073 | -17.78° C | 100% | 1012.9 hPa | 0 mm | - | - | - |
| 1777887342 | 14.44° C | 72% | 1012.5 hPa | 0 mm | - | - | - |
| 1777886844 | 14.44° C | 73% | 1012.2 hPa | 0 mm | - | - | - |
| 1777884738 | -17.78° C | 100% | 1012.2 hPa | 0 mm | - | - | - |
| 1777884204 | 15.56° C | 70% | 1011.9 hPa | 0 mm | - | - | - |
| 1777883956 | 15.56° C | 70% | 1011.5 hPa | 0 mm | - | - | - |
| 1777881936 | 17.22° C | 65% | 1011.9 hPa | 0 mm | - | - | - |
| 1777880169 | -17.78° C | 100% | 1011.2 hPa | 0 mm | - | - | - |
| 1777880044 | -17.78° C | 100% | 1011.2 hPa | 0 mm | - | - | - |
| 1777879759 | -17.78° C | 100% | 1011.2 hPa | 0 mm | - | - | - |
| 1777879293 | -17.78° C | 100% | 1011.2 hPa | 0 mm | - | - | - |
| 1777879026 | -17.78° C | 100% | 1011.2 hPa | 0 mm | - | - | - |
* Rain latest hour (hover to see other rain measurements)
** Current wind speed in m/s (hover to see current wind gust speed)